Dunkirk, NY (14048)

6:46 AM EDT on April 02, 2015 (GMT -0400)
Town of Pomfret | | Change Station
CLOSE
Current Station
Personal Weather Station
Location: Fredonia, NY
Elevation: 846 ft
Nearby Weather Stations

Elev 846 ft 42.42 °N, 79.35 °W | Updated 7 minutes ago

Clear
Clear
45.5 °F
Feels Like 44 °F
N
4.2
Wind Variable Wind from ESE

Today
High -- | Low -- °F
--% Chance of Precip.
Yesterday
High -- | Low -- °F
Precip. -- in
6:58 AM 7:44 PM
Waxing Gibbous, 96% visible
Pressure 30.01 in
Visibility 10.0 miles
Clouds Clear
Windchill 44 °F
Dew Point Not available.
Humidity Not available.
Rainfall 0.00 in
Snow Depth Not available.
UV 0 out of 12
Pollen 1.90 out of 12
Air Quality Not available.
Flu Activity Not available.
METAR KDKK 020953Z AUTO 19017G29KT 10SM CLR 09/M02 A3000 RMK AO2 PK WND 20030/0941 SLP162 T00941022

More Conditions Fewer Conditions

Pressure 30.01 in
Visibility 10.0 miles
Clouds Clear
Windchill 44 °F
Dew Point Not available.
Humidity Not available.
Rainfall 0.00 in
Snow Depth Not available.
UV 0 out of 12
Pollen 1.90 out of 12
Air Quality Not available.
Flu Activity Not available.
METAR KDKK 020953Z AUTO 19017G29KT 10SM CLR 09/M02 A3000 RMK AO2 PK WND 20030/0941 SLP162 T00941022

More Conditions Fewer Conditions

10-Day Weather Forecast

Almanac

Astronomy

Apr. 02, 2015 Rise Set
Actual Time
Civil Twilight
Nautical Twilight
Astronomical Twilight
Moon
Length of Visible Light
Length of Day
Tomorrow will be .
, % of the Moon is Illuminated

Today's Extremes

State Highs State Lows

Community

WunderPhotos

Upload Photos

1,810,216 photos uploaded!

WunderBlogs® & News

Nearby

Air Quality

  Air Quality AQ Index Pollutant
Not available.

Snow Depth

Station Depth Elevation

Earthquake Activity

City Distance Mag. Time & Date
Minimum magnitude displayed is 2.5.

Coastal Water Temperatures

Place Temperature

Stations

Nearby Weather Stations

Station Location Temp. Windchill Dew Point Humidity Wind Precip. Elev Updated Type